sensor_id;sensor_type;location;lat;lon;timestamp;P1;durP1;ratioP1;P2;durP2;ratioP2
12962;SDS011;6546;49.882;8.666;2022-07-29T00:01:05;4.87;;;2.23;;
12962;SDS011;6546;49.882;8.666;2022-07-29T00:03:32;3.90;;;2.30;;
12962;SDS011;6546;49.882;8.666;2022-07-29T00:05:59;3.67;;;2.07;;
12962;SDS011;6546;49.882;8.666;2022-07-29T00:08:29;4.83;;;2.40;;
12962;SDS011;6546;49.882;8.666;2022-07-29T00:10:55;4.47;;;2.40;;
12962;SDS011;6546;49.882;8.666;2022-07-29T00:13:22;4.67;;;1.80;;
12962;SDS011;6546;49.882;8.666;2022-07-29T00:15:48;4.20;;;2.37;;
12962;SDS011;6546;49.882;8.666;2022-07-29T00:18:15;5.40;;;2.27;;
12962;SDS011;6546;49.882;8.666;2022-07-29T00:20:42;3.67;;;2.10;;
12962;SDS011;6546;49.882;8.666;2022-07-29T00:23:08;2.57;;;2.37;;
12962;SDS011;6546;49.882;8.666;2022-07-29T00:25:36;3.17;;;2.10;;
12962;SDS011;6546;49.882;8.666;2022-07-29T00:28:03;4.30;;;2.20;;
12962;SDS011;6546;49.882;8.666;2022-07-29T00:30:30;5.00;;;2.17;;
12962;SDS011;6546;49.882;8.666;2022-07-29T00:32:57;3.73;;;2.47;;
12962;SDS011;6546;49.882;8.666;2022-07-29T00:35:24;2.50;;;2.00;;
12962;SDS011;6546;49.882;8.666;2022-07-29T00:38:08;2.90;;;1.87;;
12962;SDS011;6546;49.882;8.666;2022-07-29T00:40:34;2.60;;;1.93;;
12962;SDS011;6546;49.882;8.666;2022-07-29T00:43:02;4.57;;;2.30;;
12962;SDS011;6546;49.882;8.666;2022-07-29T00:45:29;5.23;;;2.17;;
12962;SDS011;6546;49.882;8.666;2022-07-29T00:47:56;5.13;;;2.00;;
12962;SDS011;6546;49.882;8.666;2022-07-29T00:50:23;3.30;;;2.47;;
12962;SDS011;6546;49.882;8.666;2022-07-29T00:52:50;3.53;;;1.80;;
12962;SDS011;6546;49.882;8.666;2022-07-29T00:55:18;4.50;;;2.10;;
12962;SDS011;6546;49.882;8.666;2022-07-29T00:57:45;4.17;;;2.30;;
12962;SDS011;6546;49.882;8.666;2022-07-29T01:00:15;5.40;;;2.10;;
12962;SDS011;6546;49.882;8.666;2022-07-29T01:02:44;3.47;;;1.93;;
12962;SDS011;6546;49.882;8.666;2022-07-29T01:05:13;2.30;;;1.90;;
12962;SDS011;6546;49.882;8.666;2022-07-29T01:07:42;4.57;;;2.20;;
12962;SDS011;6546;49.882;8.666;2022-07-29T01:10:11;5.63;;;1.90;;
12962;SDS011;6546;49.882;8.666;2022-07-29T01:12:39;5.83;;;2.07;;
12962;SDS011;6546;49.882;8.666;2022-07-29T01:15:10;2.37;;;2.00;;
12962;SDS011;6546;49.882;8.666;2022-07-29T01:17:41;7.33;;;2.33;;
12962;SDS011;6546;49.882;8.666;2022-07-29T01:20:12;1.60;;;1.50;;
12962;SDS011;6546;49.882;8.666;2022-07-29T01:28:56;4.23;;;1.90;;
12962;SDS011;6546;49.882;8.666;2022-07-29T01:31:37;3.43;;;1.80;;
12962;SDS011;6546;49.882;8.666;2022-07-29T01:34:09;4.57;;;1.90;;
12962;SDS011;6546;49.882;8.666;2022-07-29T01:36:43;3.70;;;1.60;;
12962;SDS011;6546;49.882;8.666;2022-07-29T01:39:16;4.87;;;2.17;;
12962;SDS011;6546;49.882;8.666;2022-07-29T01:41:55;5.80;;;1.80;;
12962;SDS011;6546;49.882;8.666;2022-07-29T01:44:30;3.63;;;1.70;;
12962;SDS011;6546;49.882;8.666;2022-07-29T01:47:01;2.93;;;2.00;;
12962;SDS011;6546;49.882;8.666;2022-07-29T01:49:33;5.47;;;2.47;;
12962;SDS011;6546;49.882;8.666;2022-07-29T01:52:03;4.57;;;2.23;;
12962;SDS011;6546;49.882;8.666;2022-07-29T01:54:34;6.13;;;2.33;;
12962;SDS011;6546;49.882;8.666;2022-07-29T01:57:03;3.40;;;2.17;;
12962;SDS011;6546;49.882;8.666;2022-07-29T01:59:34;4.37;;;1.97;;
12962;SDS011;6546;49.882;8.666;2022-07-29T02:02:02;4.90;;;1.90;;
12962;SDS011;6546;49.882;8.666;2022-07-29T02:04:30;2.83;;;2.43;;
12962;SDS011;6546;49.882;8.666;2022-07-29T02:07:00;6.57;;;2.20;;
12962;SDS011;6546;49.882;8.666;2022-07-29T02:09:28;2.97;;;1.90;;
12962;SDS011;6546;49.882;8.666;2022-07-29T02:11:57;7.97;;;2.40;;
12962;SDS011;6546;49.882;8.666;2022-07-29T02:14:27;8.20;;;2.20;;
12962;SDS011;6546;49.882;8.666;2022-07-29T02:16:59;4.40;;;2.40;;
12962;SDS011;6546;49.882;8.666;2022-07-29T02:19:27;2.63;;;2.03;;
12962;SDS011;6546;49.882;8.666;2022-07-29T02:21:56;3.73;;;2.10;;
12962;SDS011;6546;49.882;8.666;2022-07-29T02:24:24;7.07;;;2.47;;
12962;SDS011;6546;49.882;8.666;2022-07-29T02:26:53;3.00;;;2.30;;
12962;SDS011;6546;49.882;8.666;2022-07-29T02:29:22;4.57;;;2.23;;
12962;SDS011;6546;49.882;8.666;2022-07-29T02:31:51;4.07;;;2.10;;
12962;SDS011;6546;49.882;8.666;2022-07-29T02:34:20;5.63;;;2.30;;
12962;SDS011;6546;49.882;8.666;2022-07-29T02:36:47;3.17;;;2.33;;
12962;SDS011;6546;49.882;8.666;2022-07-29T02:39:15;3.70;;;2.20;;
12962;SDS011;6546;49.882;8.666;2022-07-29T02:41:45;7.40;;;2.60;;
12962;SDS011;6546;49.882;8.666;2022-07-29T02:44:14;7.13;;;2.37;;
12962;SDS011;6546;49.882;8.666;2022-07-29T02:46:43;4.17;;;2.40;;
12962;SDS011;6546;49.882;8.666;2022-07-29T02:49:18;5.93;;;2.30;;
12962;SDS011;6546;49.882;8.666;2022-07-29T02:51:54;5.27;;;2.60;;
12962;SDS011;6546;49.882;8.666;2022-07-29T02:54:26;6.23;;;2.33;;
12962;SDS011;6546;49.882;8.666;2022-07-29T02:57:00;4.50;;;2.23;;
12962;SDS011;6546;49.882;8.666;2022-07-29T02:59:33;6.27;;;2.40;;
12962;SDS011;6546;49.882;8.666;2022-07-29T03:02:03;5.57;;;2.40;;
12962;SDS011;6546;49.882;8.666;2022-07-29T03:04:34;6.83;;;2.67;;
12962;SDS011;6546;49.882;8.666;2022-07-29T03:07:01;5.27;;;2.13;;
12962;SDS011;6546;49.882;8.666;2022-07-29T03:09:30;4.40;;;2.50;;
12962;SDS011;6546;49.882;8.666;2022-07-29T03:11:57;2.93;;;2.30;;
12962;SDS011;6546;49.882;8.666;2022-07-29T03:14:24;4.60;;;2.40;;
12962;SDS011;6546;49.882;8.666;2022-07-29T03:16:52;6.63;;;2.40;;
12962;SDS011;6546;49.882;8.666;2022-07-29T03:19:19;7.13;;;2.50;;
12962;SDS011;6546;49.882;8.666;2022-07-29T03:21:48;3.07;;;2.30;;
12962;SDS011;6546;49.882;8.666;2022-07-29T03:24:24;4.37;;;2.57;;
12962;SDS011;6546;49.882;8.666;2022-07-29T03:26:52;4.40;;;2.20;;
12962;SDS011;6546;49.882;8.666;2022-07-29T03:29:20;3.97;;;2.40;;
12962;SDS011;6546;49.882;8.666;2022-07-29T03:31:46;4.30;;;2.80;;
12962;SDS011;6546;49.882;8.666;2022-07-29T03:34:13;5.60;;;2.50;;
12962;SDS011;6546;49.882;8.666;2022-07-29T03:36:40;4.63;;;2.33;;
12962;SDS011;6546;49.882;8.666;2022-07-29T03:39:07;4.07;;;2.43;;
12962;SDS011;6546;49.882;8.666;2022-07-29T03:41:36;5.50;;;2.70;;
12962;SDS011;6546;49.882;8.666;2022-07-29T03:44:06;4.63;;;2.50;;
12962;SDS011;6546;49.882;8.666;2022-07-29T03:46:34;3.97;;;2.30;;
12962;SDS011;6546;49.882;8.666;2022-07-29T03:49:02;3.73;;;2.30;;
12962;SDS011;6546;49.882;8.666;2022-07-29T03:51:33;6.17;;;2.50;;
12962;SDS011;6546;49.882;8.666;2022-07-29T03:54:00;7.50;;;2.70;;
12962;SDS011;6546;49.882;8.666;2022-07-29T03:56:28;6.87;;;3.10;;
12962;SDS011;6546;49.882;8.666;2022-07-29T03:58:58;7.87;;;2.53;;
12962;SDS011;6546;49.882;8.666;2022-07-29T04:01:26;3.30;;;2.30;;
12962;SDS011;6546;49.882;8.666;2022-07-29T04:03:54;5.20;;;2.50;;
12962;SDS011;6546;49.882;8.666;2022-07-29T04:06:21;5.73;;;2.47;;
12962;SDS011;6546;49.882;8.666;2022-07-29T04:08:48;4.47;;;2.40;;
12962;SDS011;6546;49.882;8.666;2022-07-29T04:11:14;4.93;;;2.60;;
12962;SDS011;6546;49.882;8.666;2022-07-29T04:13:42;5.63;;;2.27;;
12962;SDS011;6546;49.882;8.666;2022-07-29T04:16:09;4.07;;;2.40;;
12962;SDS011;6546;49.882;8.666;2022-07-29T04:18:35;3.77;;;2.60;;
12962;SDS011;6546;49.882;8.666;2022-07-29T04:21:02;6.20;;;2.50;;
12962;SDS011;6546;49.882;8.666;2022-07-29T04:23:29;3.50;;;2.40;;
12962;SDS011;6546;49.882;8.666;2022-07-29T04:25:57;4.67;;;2.13;;
12962;SDS011;6546;49.882;8.666;2022-07-29T04:28:25;3.37;;;2.30;;
12962;SDS011;6546;49.882;8.666;2022-07-29T04:30:53;4.20;;;2.27;;
12962;SDS011;6546;49.882;8.666;2022-07-29T04:33:20;3.73;;;2.23;;
12962;SDS011;6546;49.882;8.666;2022-07-29T04:35:46;3.37;;;2.20;;
12962;SDS011;6546;49.882;8.666;2022-07-29T04:38:13;4.90;;;2.67;;
12962;SDS011;6546;49.882;8.666;2022-07-29T04:40:39;8.03;;;2.60;;
12962;SDS011;6546;49.882;8.666;2022-07-29T04:43:06;3.50;;;2.47;;
12962;SDS011;6546;49.882;8.666;2022-07-29T04:45:33;4.80;;;2.37;;
12962;SDS011;6546;49.882;8.666;2022-07-29T04:48:01;3.50;;;2.33;;
12962;SDS011;6546;49.882;8.666;2022-07-29T04:50:27;4.03;;;2.30;;
12962;SDS011;6546;49.882;8.666;2022-07-29T04:52:54;4.00;;;2.60;;
12962;SDS011;6546;49.882;8.666;2022-07-29T04:55:21;4.63;;;2.67;;
12962;SDS011;6546;49.882;8.666;2022-07-29T04:57:48;5.63;;;2.67;;
12962;SDS011;6546;49.882;8.666;2022-07-29T05:00:14;4.63;;;2.80;;
12962;SDS011;6546;49.882;8.666;2022-07-29T05:02:41;6.27;;;2.80;;
12962;SDS011;6546;49.882;8.666;2022-07-29T05:05:09;3.30;;;2.23;;
12962;SDS011;6546;49.882;8.666;2022-07-29T05:07:36;4.50;;;2.53;;
12962;SDS011;6546;49.882;8.666;2022-07-29T05:10:03;4.77;;;2.33;;
12962;SDS011;6546;49.882;8.666;2022-07-29T05:12:30;2.87;;;2.23;;
12962;SDS011;6546;49.882;8.666;2022-07-29T05:14:57;5.50;;;2.57;;
12962;SDS011;6546;49.882;8.666;2022-07-29T05:17:23;5.73;;;2.43;;
12962;SDS011;6546;49.882;8.666;2022-07-29T05:19:50;6.20;;;2.80;;
12962;SDS011;6546;49.882;8.666;2022-07-29T05:22:18;3.97;;;2.57;;
12962;SDS011;6546;49.882;8.666;2022-07-29T05:24:45;4.77;;;2.27;;
12962;SDS011;6546;49.882;8.666;2022-07-29T05:27:12;3.53;;;2.33;;
12962;SDS011;6546;49.882;8.666;2022-07-29T05:29:39;3.67;;;2.27;;
12962;SDS011;6546;49.882;8.666;2022-07-29T05:32:05;4.70;;;2.67;;
12962;SDS011;6546;49.882;8.666;2022-07-29T05:34:32;8.57;;;2.50;;
12962;SDS011;6546;49.882;8.666;2022-07-29T05:36:59;5.63;;;2.33;;
12962;SDS011;6546;49.882;8.666;2022-07-29T05:39:27;4.37;;;3.00;;
12962;SDS011;6546;49.882;8.666;2022-07-29T05:41:54;7.10;;;2.53;;
12962;SDS011;6546;49.882;8.666;2022-07-29T05:44:20;4.63;;;2.67;;
12962;SDS011;6546;49.882;8.666;2022-07-29T05:46:47;5.83;;;2.50;;
12962;SDS011;6546;49.882;8.666;2022-07-29T05:49:14;6.10;;;2.83;;
12962;SDS011;6546;49.882;8.666;2022-07-29T05:51:40;6.40;;;2.57;;
12962;SDS011;6546;49.882;8.666;2022-07-29T05:54:07;5.47;;;2.80;;
12962;SDS011;6546;49.882;8.666;2022-07-29T05:56:36;5.50;;;2.33;;
12962;SDS011;6546;49.882;8.666;2022-07-29T05:59:03;6.43;;;2.77;;
12962;SDS011;6546;49.882;8.666;2022-07-29T06:01:29;7.13;;;2.73;;
12962;SDS011;6546;49.882;8.666;2022-07-29T06:03:56;7.50;;;2.87;;
12962;SDS011;6546;49.882;8.666;2022-07-29T06:06:23;4.23;;;2.57;;
12962;SDS011;6546;49.882;8.666;2022-07-29T06:08:49;5.97;;;3.00;;
12962;SDS011;6546;49.882;8.666;2022-07-29T06:11:16;5.33;;;2.87;;
12962;SDS011;6546;49.882;8.666;2022-07-29T06:13:44;6.60;;;2.80;;
12962;SDS011;6546;49.882;8.666;2022-07-29T06:16:10;4.33;;;2.73;;
12962;SDS011;6546;49.882;8.666;2022-07-29T06:18:37;7.27;;;2.93;;
12962;SDS011;6546;49.882;8.666;2022-07-29T06:21:07;7.27;;;2.93;;
12962;SDS011;6546;49.882;8.666;2022-07-29T06:23:34;5.73;;;2.97;;
12962;SDS011;6546;49.882;8.666;2022-07-29T06:26:03;6.00;;;2.60;;
12962;SDS011;6546;49.882;8.666;2022-07-29T06:28:30;4.20;;;2.80;;
12962;SDS011;6546;49.882;8.666;2022-07-29T06:30:58;4.10;;;2.80;;
12962;SDS011;6546;49.882;8.666;2022-07-29T06:33:25;5.30;;;2.97;;
12962;SDS011;6546;49.882;8.666;2022-07-29T06:35:51;3.97;;;3.30;;
12962;SDS011;6546;49.882;8.666;2022-07-29T06:38:18;5.07;;;3.00;;
12962;SDS011;6546;49.882;8.666;2022-07-29T06:40:45;7.47;;;3.10;;
12962;SDS011;6546;49.882;8.666;2022-07-29T06:43:29;4.53;;;2.97;;
12962;SDS011;6546;49.882;8.666;2022-07-29T06:46:00;6.43;;;3.10;;
12962;SDS011;6546;49.882;8.666;2022-07-29T06:48:28;7.10;;;3.33;;
12962;SDS011;6546;49.882;8.666;2022-07-29T06:50:55;6.10;;;3.00;;
12962;SDS011;6546;49.882;8.666;2022-07-29T06:53:22;6.40;;;2.90;;
12962;SDS011;6546;49.882;8.666;2022-07-29T06:55:49;5.67;;;3.43;;
12962;SDS011;6546;49.882;8.666;2022-07-29T06:58:15;4.40;;;3.00;;
12962;SDS011;6546;49.882;8.666;2022-07-29T07:00:45;4.10;;;3.10;;
12962;SDS011;6546;49.882;8.666;2022-07-29T07:03:13;4.73;;;3.40;;
12962;SDS011;6546;49.882;8.666;2022-07-29T07:05:40;6.43;;;3.10;;
12962;SDS011;6546;49.882;8.666;2022-07-29T07:08:07;6.23;;;3.80;;
12962;SDS011;6546;49.882;8.666;2022-07-29T07:10:33;4.23;;;3.30;;
12962;SDS011;6546;49.882;8.666;2022-07-29T07:13:00;9.27;;;3.40;;
12962;SDS011;6546;49.882;8.666;2022-07-29T07:15:28;7.17;;;3.70;;
12962;SDS011;6546;49.882;8.666;2022-07-29T07:17:55;6.97;;;3.17;;
12962;SDS011;6546;49.882;8.666;2022-07-29T07:20:23;4.83;;;3.10;;
12962;SDS011;6546;49.882;8.666;2022-07-29T07:22:50;5.73;;;2.93;;
12962;SDS011;6546;49.882;8.666;2022-07-29T07:25:17;5.27;;;3.13;;
12962;SDS011;6546;49.882;8.666;2022-07-29T07:27:44;8.23;;;2.90;;
12962;SDS011;6546;49.882;8.666;2022-07-29T07:30:11;4.93;;;3.23;;
12962;SDS011;6546;49.882;8.666;2022-07-29T07:32:38;8.67;;;3.53;;
12962;SDS011;6546;49.882;8.666;2022-07-29T07:35:06;5.40;;;2.97;;
12962;SDS011;6546;49.882;8.666;2022-07-29T07:37:35;7.03;;;3.20;;
12962;SDS011;6546;49.882;8.666;2022-07-29T07:40:02;6.70;;;3.40;;
12962;SDS011;6546;49.882;8.666;2022-07-29T07:42:30;5.83;;;3.10;;
12962;SDS011;6546;49.882;8.666;2022-07-29T07:44:57;4.00;;;2.97;;
12962;SDS011;6546;49.882;8.666;2022-07-29T07:47:23;6.10;;;3.03;;
12962;SDS011;6546;49.882;8.666;2022-07-29T07:49:50;5.87;;;2.97;;
12962;SDS011;6546;49.882;8.666;2022-07-29T07:52:17;7.37;;;3.37;;
12962;SDS011;6546;49.882;8.666;2022-07-29T07:54:46;4.27;;;3.37;;
12962;SDS011;6546;49.882;8.666;2022-07-29T07:57:14;7.00;;;3.10;;
12962;SDS011;6546;49.882;8.666;2022-07-29T07:59:41;5.67;;;3.40;;
12962;SDS011;6546;49.882;8.666;2022-07-29T08:02:08;4.30;;;3.13;;
12962;SDS011;6546;49.882;8.666;2022-07-29T08:04:35;3.57;;;2.97;;
12962;SDS011;6546;49.882;8.666;2022-07-29T08:07:05;4.97;;;2.90;;
12962;SDS011;6546;49.882;8.666;2022-07-29T08:09:31;4.57;;;2.80;;
12962;SDS011;6546;49.882;8.666;2022-07-29T08:12:00;5.87;;;3.03;;
12962;SDS011;6546;49.882;8.666;2022-07-29T08:14:28;3.20;;;2.90;;
12962;SDS011;6546;49.882;8.666;2022-07-29T08:16:56;6.63;;;2.87;;
12962;SDS011;6546;49.882;8.666;2022-07-29T08:19:22;4.27;;;3.10;;
12962;SDS011;6546;49.882;8.666;2022-07-29T08:21:49;4.80;;;3.20;;
12962;SDS011;6546;49.882;8.666;2022-07-29T08:24:17;5.83;;;3.30;;
12962;SDS011;6546;49.882;8.666;2022-07-29T08:27:02;6.17;;;3.20;;
12962;SDS011;6546;49.882;8.666;2022-07-29T08:29:29;4.35;;;3.28;;
12962;SDS011;6546;49.882;8.666;2022-07-29T08:31:56;3.20;;;2.90;;
12962;SDS011;6546;49.882;8.666;2022-07-29T08:34:22;5.33;;;3.20;;
12962;SDS011;6546;49.882;8.666;2022-07-29T08:36:49;3.50;;;2.93;;
12962;SDS011;6546;49.882;8.666;2022-07-29T08:39:15;5.50;;;3.15;;
12962;SDS011;6546;49.882;8.666;2022-07-29T08:41:42;3.50;;;3.10;;
12962;SDS011;6546;49.882;8.666;2022-07-29T08:44:10;5.22;;;3.28;;
12962;SDS011;6546;49.882;8.666;2022-07-29T08:46:37;4.50;;;2.90;;
12962;SDS011;6546;49.882;8.666;2022-07-29T08:49:04;3.92;;;3.15;;
12962;SDS011;6546;49.882;8.666;2022-07-29T08:51:31;4.43;;;3.38;;
12962;SDS011;6546;49.882;8.666;2022-07-29T08:54:00;4.47;;;3.10;;
12962;SDS011;6546;49.882;8.666;2022-07-29T08:56:27;5.55;;;3.25;;
12962;SDS011;6546;49.882;8.666;2022-07-29T08:58:55;3.53;;;2.90;;
12962;SDS011;6546;49.882;8.666;2022-07-29T09:01:27;4.87;;;2.90;;
12962;SDS011;6546;49.882;8.666;2022-07-29T09:03:56;6.40;;;3.55;;
12962;SDS011;6546;49.882;8.666;2022-07-29T09:06:26;4.03;;;3.30;;
12962;SDS011;6546;49.882;8.666;2022-07-29T09:08:58;4.35;;;3.30;;
12962;SDS011;6546;49.882;8.666;2022-07-29T09:11:25;3.73;;;3.30;;
12962;SDS011;6546;49.882;8.666;2022-07-29T09:13:53;4.07;;;3.40;;
12962;SDS011;6546;49.882;8.666;2022-07-29T09:16:20;3.70;;;3.10;;
12962;SDS011;6546;49.882;8.666;2022-07-29T09:18:48;7.65;;;3.33;;
12962;SDS011;6546;49.882;8.666;2022-07-29T09:21:15;4.72;;;3.55;;
12962;SDS011;6546;49.882;8.666;2022-07-29T09:24:02;6.57;;;3.30;;
12962;SDS011;6546;49.882;8.666;2022-07-29T09:26:32;5.70;;;3.10;;
12962;SDS011;6546;49.882;8.666;2022-07-29T09:29:00;4.20;;;3.05;;
12962;SDS011;6546;49.882;8.666;2022-07-29T09:31:35;6.10;;;3.28;;
12962;SDS011;6546;49.882;8.666;2022-07-29T09:34:05;6.25;;;3.17;;
12962;SDS011;6546;49.882;8.666;2022-07-29T09:36:38;3.85;;;3.45;;
12962;SDS011;6546;49.882;8.666;2022-07-29T09:39:05;6.20;;;3.15;;
12962;SDS011;6546;49.882;8.666;2022-07-29T09:41:43;4.32;;;3.05;;
12962;SDS011;6546;49.882;8.666;2022-07-29T09:44:11;3.50;;;3.20;;
12962;SDS011;6546;49.882;8.666;2022-07-29T09:46:39;7.22;;;3.40;;
12962;SDS011;6546;49.882;8.666;2022-07-29T09:49:09;6.68;;;5.13;;
12962;SDS011;6546;49.882;8.666;2022-07-29T09:51:37;5.22;;;3.78;;
12962;SDS011;6546;49.882;8.666;2022-07-29T09:56:50;4.28;;;3.42;;
12962;SDS011;6546;49.882;8.666;2022-07-29T09:59:18;3.67;;;3.38;;
12962;SDS011;6546;49.882;8.666;2022-07-29T10:01:45;4.10;;;3.70;;
12962;SDS011;6546;49.882;8.666;2022-07-29T10:04:14;3.92;;;2.90;;
12962;SDS011;6546;49.882;8.666;2022-07-29T10:06:54;4.88;;;3.38;;
12962;SDS011;6546;49.882;8.666;2022-07-29T10:09:23;3.90;;;3.10;;
12962;SDS011;6546;49.882;8.666;2022-07-29T10:12:07;4.85;;;3.42;;
12962;SDS011;6546;49.882;8.666;2022-07-29T10:14:37;4.05;;;3.47;;
12962;SDS011;6546;49.882;8.666;2022-07-29T10:17:04;3.50;;;3.10;;
12962;SDS011;6546;49.882;8.666;2022-07-29T10:19:34;6.68;;;3.88;;
12962;SDS011;6546;49.882;8.666;2022-07-29T10:22:02;4.82;;;3.30;;
12962;SDS011;6546;49.882;8.666;2022-07-29T10:24:30;5.18;;;3.42;;
12962;SDS011;6546;49.882;8.666;2022-07-29T10:27:00;3.83;;;3.22;;
12962;SDS011;6546;49.882;8.666;2022-07-29T10:29:27;3.75;;;3.20;;
12962;SDS011;6546;49.882;8.666;2022-07-29T10:35:01;4.30;;;3.22;;
12962;SDS011;6546;49.882;8.666;2022-07-29T10:38:00;6.00;;;3.40;;
12962;SDS011;6546;49.882;8.666;2022-07-29T10:40:39;4.03;;;3.35;;
12962;SDS011;6546;49.882;8.666;2022-07-29T10:43:27;4.55;;;3.60;;
12962;SDS011;6546;49.882;8.666;2022-07-29T10:45:55;3.25;;;2.95;;
12962;SDS011;6546;49.882;8.666;2022-07-29T10:48:24;4.20;;;3.80;;
12962;SDS011;6546;49.882;8.666;2022-07-29T10:50:56;4.72;;;3.75;;
12962;SDS011;6546;49.882;8.666;2022-07-29T10:53:25;4.45;;;3.55;;
12962;SDS011;6546;49.882;8.666;2022-07-29T10:56:25;3.70;;;3.20;;
12962;SDS011;6546;49.882;8.666;2022-07-29T11:01:53;3.85;;;3.22;;
12962;SDS011;6546;49.882;8.666;2022-07-29T11:07:25;5.47;;;4.03;;
12962;SDS011;6546;49.882;8.666;2022-07-29T11:12:47;4.45;;;4.05;;
12962;SDS011;6546;49.882;8.666;2022-07-29T11:15:14;7.32;;;3.92;;
12962;SDS011;6546;49.882;8.666;2022-07-29T11:20:30;8.73;;;6.15;;
12962;SDS011;6546;49.882;8.666;2022-07-29T11:23:00;5.82;;;4.03;;
12962;SDS011;6546;49.882;8.666;2022-07-29T11:25:27;5.45;;;3.80;;
12962;SDS011;6546;49.882;8.666;2022-07-29T11:27:54;5.70;;;3.70;;
12962;SDS011;6546;49.882;8.666;2022-07-29T11:30:47;6.53;;;4.10;;
12962;SDS011;6546;49.882;8.666;2022-07-29T11:33:26;5.32;;;3.42;;
12962;SDS011;6546;49.882;8.666;2022-07-29T11:36:07;8.50;;;7.07;;
12962;SDS011;6546;49.882;8.666;2022-07-29T11:38:36;7.45;;;4.22;;
12962;SDS011;6546;49.882;8.666;2022-07-29T11:41:19;7.75;;;4.03;;
12962;SDS011;6546;49.882;8.666;2022-07-29T11:43:50;5.47;;;4.13;;
12962;SDS011;6546;49.882;8.666;2022-07-29T11:46:18;6.18;;;4.15;;
12962;SDS011;6546;49.882;8.666;2022-07-29T11:49:09;4.47;;;3.72;;
12962;SDS011;6546;49.882;8.666;2022-07-29T11:51:36;5.90;;;3.83;;
12962;SDS011;6546;49.882;8.666;2022-07-29T11:54:05;4.25;;;3.70;;
12962;SDS011;6546;49.882;8.666;2022-07-29T11:56:31;4.72;;;3.40;;
12962;SDS011;6546;49.882;8.666;2022-07-29T11:59:04;4.25;;;3.88;;
12962;SDS011;6546;49.882;8.666;2022-07-29T12:01:34;4.63;;;3.72;;
12962;SDS011;6546;49.882;8.666;2022-07-29T12:04:04;4.10;;;3.70;;
12962;SDS011;6546;49.882;8.666;2022-07-29T12:06:50;7.63;;;4.28;;
12962;SDS011;6546;49.882;8.666;2022-07-29T12:09:17;4.07;;;3.67;;
12962;SDS011;6546;49.882;8.666;2022-07-29T12:11:45;4.70;;;3.92;;
12962;SDS011;6546;49.882;8.666;2022-07-29T12:14:24;7.18;;;3.65;;
12962;SDS011;6546;49.882;8.666;2022-07-29T12:16:51;5.32;;;3.80;;
12962;SDS011;6546;49.882;8.666;2022-07-29T12:19:21;4.78;;;3.63;;
12962;SDS011;6546;49.882;8.666;2022-07-29T12:21:50;7.72;;;4.00;;
12962;SDS011;6546;49.882;8.666;2022-07-29T12:24:19;5.45;;;4.30;;
12962;SDS011;6546;49.882;8.666;2022-07-29T12:26:50;6.60;;;4.00;;
12962;SDS011;6546;49.882;8.666;2022-07-29T12:29:18;6.05;;;4.03;;
12962;SDS011;6546;49.882;8.666;2022-07-29T12:31:45;7.88;;;4.20;;
12962;SDS011;6546;49.882;8.666;2022-07-29T12:34:13;5.57;;;3.70;;
12962;SDS011;6546;49.882;8.666;2022-07-29T12:36:42;7.65;;;4.20;;
12962;SDS011;6546;49.882;8.666;2022-07-29T12:39:10;4.28;;;3.70;;
12962;SDS011;6546;49.882;8.666;2022-07-29T12:41:37;6.38;;;3.75;;
12962;SDS011;6546;49.882;8.666;2022-07-29T12:44:04;4.78;;;3.97;;
12962;SDS011;6546;49.882;8.666;2022-07-29T12:46:31;4.50;;;3.80;;
12962;SDS011;6546;49.882;8.666;2022-07-29T12:48:58;5.93;;;3.58;;
12962;SDS011;6546;49.882;8.666;2022-07-29T12:51:30;6.22;;;3.97;;
12962;SDS011;6546;49.882;8.666;2022-07-29T12:54:03;7.57;;;4.05;;
12962;SDS011;6546;49.882;8.666;2022-07-29T12:56:33;5.75;;;3.75;;
12962;SDS011;6546;49.882;8.666;2022-07-29T12:58:59;6.47;;;3.55;;
12962;SDS011;6546;49.882;8.666;2022-07-29T13:01:36;6.30;;;3.95;;
12962;SDS011;6546;49.882;8.666;2022-07-29T13:04:03;6.72;;;3.42;;
12962;SDS011;6546;49.882;8.666;2022-07-29T13:06:30;6.85;;;3.72;;
12962;SDS011;6546;49.882;8.666;2022-07-29T13:09:06;6.25;;;3.60;;
12962;SDS011;6546;49.882;8.666;2022-07-29T13:11:40;4.90;;;3.35;;
12962;SDS011;6546;49.882;8.666;2022-07-29T13:14:07;4.30;;;3.30;;
12962;SDS011;6546;49.882;8.666;2022-07-29T13:16:35;5.13;;;3.40;;
12962;SDS011;6546;49.882;8.666;2022-07-29T13:19:06;5.60;;;3.60;;
12962;SDS011;6546;49.882;8.666;2022-07-29T13:21:34;4.50;;;3.28;;
12962;SDS011;6546;49.882;8.666;2022-07-29T13:24:01;5.43;;;3.67;;
12962;SDS011;6546;49.882;8.666;2022-07-29T13:26:28;5.82;;;3.65;;
12962;SDS011;6546;49.882;8.666;2022-07-29T13:28:56;5.57;;;3.42;;
12962;SDS011;6546;49.882;8.666;2022-07-29T13:31:23;5.03;;;3.97;;
12962;SDS011;6546;49.882;8.666;2022-07-29T13:33:50;5.43;;;3.65;;
12962;SDS011;6546;49.882;8.666;2022-07-29T13:36:16;3.83;;;3.42;;
12962;SDS011;6546;49.882;8.666;2022-07-29T13:38:43;4.63;;;3.33;;
12962;SDS011;6546;49.882;8.666;2022-07-29T13:41:10;4.82;;;3.00;;
12962;SDS011;6546;49.882;8.666;2022-07-29T13:43:36;4.95;;;3.03;;
12962;SDS011;6546;49.882;8.666;2022-07-29T13:46:04;3.50;;;3.20;;
12962;SDS011;6546;49.882;8.666;2022-07-29T13:48:31;4.07;;;2.97;;
12962;SDS011;6546;49.882;8.666;2022-07-29T13:50:57;6.97;;;3.30;;
12962;SDS011;6546;49.882;8.666;2022-07-29T13:53:24;5.38;;;3.10;;
12962;SDS011;6546;49.882;8.666;2022-07-29T13:55:51;6.72;;;3.40;;
12962;SDS011;6546;49.882;8.666;2022-07-29T13:58:18;5.78;;;3.10;;
12962;SDS011;6546;49.882;8.666;2022-07-29T14:00:44;6.63;;;3.38;;
12962;SDS011;6546;49.882;8.666;2022-07-29T14:03:13;3.72;;;3.00;;
12962;SDS011;6546;49.882;8.666;2022-07-29T14:05:39;4.07;;;3.35;;
12962;SDS011;6546;49.882;8.666;2022-07-29T14:08:06;4.53;;;3.13;;
12962;SDS011;6546;49.882;8.666;2022-07-29T14:10:32;3.80;;;3.00;;
12962;SDS011;6546;49.882;8.666;2022-07-29T14:12:59;3.42;;;3.05;;
12962;SDS011;6546;49.882;8.666;2022-07-29T14:15:26;6.18;;;3.13;;
12962;SDS011;6546;49.882;8.666;2022-07-29T14:17:52;3.20;;;2.90;;
12962;SDS011;6546;49.882;8.666;2022-07-29T14:20:20;6.38;;;2.80;;
12962;SDS011;6546;49.882;8.666;2022-07-29T14:22:47;5.28;;;3.00;;
12962;SDS011;6546;49.882;8.666;2022-07-29T14:25:14;7.22;;;3.15;;
12962;SDS011;6546;49.882;8.666;2022-07-29T14:27:40;4.97;;;3.22;;
12962;SDS011;6546;49.882;8.666;2022-07-29T14:30:08;3.85;;;3.42;;
12962;SDS011;6546;49.882;8.666;2022-07-29T14:32:35;5.00;;;3.17;;
12962;SDS011;6546;49.882;8.666;2022-07-29T14:35:02;4.90;;;2.83;;
12962;SDS011;6546;49.882;8.666;2022-07-29T14:37:31;5.70;;;3.13;;
12962;SDS011;6546;49.882;8.666;2022-07-29T14:39:57;4.18;;;3.10;;
12962;SDS011;6546;49.882;8.666;2022-07-29T14:42:28;3.70;;;2.70;;
12962;SDS011;6546;49.882;8.666;2022-07-29T14:44:54;3.42;;;2.97;;
12962;SDS011;6546;49.882;8.666;2022-07-29T14:47:21;3.58;;;3.22;;
12962;SDS011;6546;49.882;8.666;2022-07-29T14:49:48;6.10;;;3.42;;
12962;SDS011;6546;49.882;8.666;2022-07-29T14:52:15;4.97;;;3.20;;
12962;SDS011;6546;49.882;8.666;2022-07-29T14:54:43;5.45;;;3.50;;
12962;SDS011;6546;49.882;8.666;2022-07-29T14:57:09;3.65;;;3.10;;
12962;SDS011;6546;49.882;8.666;2022-07-29T14:59:37;3.97;;;3.20;;
12962;SDS011;6546;49.882;8.666;2022-07-29T15:02:03;3.95;;;3.10;;
12962;SDS011;6546;49.882;8.666;2022-07-29T15:04:30;4.40;;;3.40;;
12962;SDS011;6546;49.882;8.666;2022-07-29T15:06:57;6.03;;;3.20;;
12962;SDS011;6546;49.882;8.666;2022-07-29T15:09:23;7.55;;;3.40;;
12962;SDS011;6546;49.882;8.666;2022-07-29T15:11:51;4.93;;;3.10;;
12962;SDS011;6546;49.882;8.666;2022-07-29T15:14:18;3.58;;;3.28;;
12962;SDS011;6546;49.882;8.666;2022-07-29T15:16:48;5.20;;;3.20;;
12962;SDS011;6546;49.882;8.666;2022-07-29T15:19:14;7.00;;;3.38;;
12962;SDS011;6546;49.882;8.666;2022-07-29T15:21:41;3.72;;;3.20;;
12962;SDS011;6546;49.882;8.666;2022-07-29T15:24:08;15.48;;;7.18;;
12962;SDS011;6546;49.882;8.666;2022-07-29T15:26:36;5.60;;;4.13;;
12962;SDS011;6546;49.882;8.666;2022-07-29T15:29:04;4.18;;;3.15;;
12962;SDS011;6546;49.882;8.666;2022-07-29T15:31:30;6.97;;;3.30;;
12962;SDS011;6546;49.882;8.666;2022-07-29T15:33:57;3.58;;;3.28;;